sensor_id;sensor_type;location;lat;lon;timestamp;pressure;altitude;pressure_sealevel;temperature;humidity
30744;BME280;17486;46.738;7.622;2023-02-28T00:00:20;95313.53;;;2.01;49.83
30744;BME280;17486;46.738;7.622;2023-02-28T00:02:46;95333.16;;;2.04;50.14
30744;BME280;17486;46.738;7.622;2023-02-28T00:05:13;95280.56;;;1.75;50.27
30744;BME280;17486;46.738;7.622;2023-02-28T00:07:39;95319.59;;;1.95;50.39
30744;BME280;17486;46.738;7.622;2023-02-28T00:10:06;95296.72;;;1.81;50.39
30744;BME280;17486;46.738;7.622;2023-02-28T00:12:33;95326.38;;;1.99;50.45
30744;BME280;17486;46.738;7.622;2023-02-28T00:14:59;95323.84;;;1.96;50.30
30744;BME280;17486;46.738;7.622;2023-02-28T00:17:25;95318.66;;;2.01;50.42
30744;BME280;17486;46.738;7.622;2023-02-28T00:19:51;95275.44;;;1.75;50.54
30744;BME280;17486;46.738;7.622;2023-02-28T00:22:18;95340.91;;;1.99;50.30
30744;BME280;17486;46.738;7.622;2023-02-28T00:24:45;95318.72;;;1.96;50.42
30744;BME280;17486;46.738;7.622;2023-02-28T00:27:10;95287.41;;;1.76;50.49
30744;BME280;17486;46.738;7.622;2023-02-28T00:29:36;95288.31;;;1.72;50.50
30744;BME280;17486;46.738;7.622;2023-02-28T00:32:02;95325.56;;;1.96;50.69
30744;BME280;17486;46.738;7.622;2023-02-28T00:34:28;95323.03;;;1.94;50.52
30744;BME280;17486;46.738;7.622;2023-02-28T00:36:54;95323.03;;;1.94;50.35
30744;BME280;17486;46.738;7.622;2023-02-28T00:39:19;95312.75;;;1.96;50.51
30744;BME280;17486;46.738;7.622;2023-02-28T00:41:45;95278.13;;;1.67;50.60
30744;BME280;17486;46.738;7.622;2023-02-28T00:44:10;95332.44;;;1.92;50.96
30744;BME280;17486;46.738;7.622;2023-02-28T00:46:36;95326.63;;;1.82;50.83
30744;BME280;17486;46.738;7.622;2023-02-28T00:49:01;95322.53;;;1.68;51.41
30744;BME280;17486;46.738;7.622;2023-02-28T00:51:26;95325.09;;;1.69;51.19
30744;BME280;17486;46.738;7.622;2023-02-28T00:53:52;95281.88;;;1.44;51.58
30744;BME280;17486;46.738;7.622;2023-02-28T00:56:17;95326.00;;;1.65;51.16
30744;BME280;17486;46.738;7.622;2023-02-28T00:58:43;95325.06;;;1.72;51.48
30744;BME280;17486;46.738;7.622;2023-02-28T01:01:08;95319.97;;;1.69;51.56
30744;BME280;17486;46.738;7.622;2023-02-28T01:03:34;95336.16;;;1.74;51.65
30744;BME280;17486;46.738;7.622;2023-02-28T01:05:59;95335.19;;;1.80;51.53
30744;BME280;17486;46.738;7.622;2023-02-28T01:08:25;95328.31;;;1.82;51.40
30744;BME280;17486;46.738;7.622;2023-02-28T01:10:51;95325.84;;;1.77;51.57
30744;BME280;17486;46.738;7.622;2023-02-28T01:13:17;95291.03;;;1.59;51.55
30744;BME280;17486;46.738;7.622;2023-02-28T01:15:50;95344.50;;;1.86;52.02
30744;BME280;17486;46.738;7.622;2023-02-28T01:18:16;95322.34;;;1.81;51.78
30744;BME280;17486;46.738;7.622;2023-02-28T01:20:42;95324.88;;;1.85;51.52
30744;BME280;17486;46.738;7.622;2023-02-28T01:23:08;95287.66;;;1.59;51.61
30744;BME280;17486;46.738;7.622;2023-02-28T01:25:37;95335.13;;;1.85;51.79
30744;BME280;17486;46.738;7.622;2023-02-28T01:28:03;95281.66;;;1.60;51.51
30744;BME280;17486;46.738;7.622;2023-02-28T01:30:29;95312.13;;;1.80;51.53
30744;BME280;17486;46.738;7.622;2023-02-28T01:32:54;95317.28;;;1.78;51.42
30744;BME280;17486;46.738;7.622;2023-02-28T01:35:20;95319.88;;;1.75;51.85
30744;BME280;17486;46.738;7.622;2023-02-28T01:37:45;95312.22;;;1.72;51.49
30744;BME280;17486;46.738;7.622;2023-02-28T01:40:11;95318.19;;;1.73;52.01
30744;BME280;17486;46.738;7.622;2023-02-28T01:42:37;95324.97;;;1.77;51.81
30744;BME280;17486;46.738;7.622;2023-02-28T01:45:20;95324.97;;;1.78;52.03
30744;BME280;17486;46.738;7.622;2023-02-28T01:47:48;95337.78;;;1.78;51.78
30744;BME280;17486;46.738;7.622;2023-02-28T01:50:21;95336.94;;;1.78;52.25
30744;BME280;17486;46.738;7.622;2023-02-28T01:52:48;95317.22;;;1.81;51.63
30744;BME280;17486;46.738;7.622;2023-02-28T01:55:16;95273.19;;;1.55;51.67
30744;BME280;17486;46.738;7.622;2023-02-28T01:57:48;95327.50;;;1.80;51.98
30744;BME280;17486;46.738;7.622;2023-02-28T02:00:17;95323.19;;;1.82;52.19
30744;BME280;17486;46.738;7.622;2023-02-28T02:02:46;95270.63;;;1.52;52.07
30744;BME280;17486;46.738;7.622;2023-02-28T02:05:16;95260.38;;;1.52;52.00
30744;BME280;17486;46.738;7.622;2023-02-28T02:07:45;95298.53;;;1.75;52.28
30744;BME280;17486;46.738;7.622;2023-02-28T02:10:20;95306.22;;;1.75;51.98
30744;BME280;17486;46.738;7.622;2023-02-28T02:18:29;95317.28;;;1.78;51.87
30744;BME280;17486;46.738;7.622;2023-02-28T02:35:41;95295.94;;;1.76;51.87
30744;BME280;17486;46.738;7.622;2023-02-28T02:41:16;95250.16;;;1.50;52.01
30744;BME280;17486;46.738;7.622;2023-02-28T02:46:33;95282.38;;;1.68;52.35
30744;BME280;17486;46.738;7.622;2023-02-28T02:49:03;95294.25;;;1.74;52.21
30744;BME280;17486;46.738;7.622;2023-02-28T02:51:31;95282.31;;;1.71;52.26
30744;BME280;17486;46.738;7.622;2023-02-28T02:54:04;95253.56;;;1.52;52.16
30744;BME280;17486;46.738;7.622;2023-02-28T02:56:33;95307.91;;;1.76;52.31
30744;BME280;17486;46.738;7.622;2023-02-28T02:59:04;95253.56;;;1.51;52.39
30744;BME280;17486;46.738;7.622;2023-02-28T03:01:33;95293.41;;;1.75;52.31
30744;BME280;17486;46.738;7.622;2023-02-28T03:04:08;95254.41;;;1.53;52.58
30744;BME280;17486;46.738;7.622;2023-02-28T03:06:34;95294.25;;;1.74;52.25
30744;BME280;17486;46.738;7.622;2023-02-28T03:09:00;95286.56;;;1.74;52.45
30744;BME280;17486;46.738;7.622;2023-02-28T03:11:26;95257.81;;;1.52;52.69
30744;BME280;17486;46.738;7.622;2023-02-28T03:25:16;95291.09;;;1.56;52.74
30744;BME280;17486;46.738;7.622;2023-02-28T03:33:12;95256.25;;;1.43;52.61
30744;BME280;17486;46.738;7.622;2023-02-28T03:35:47;95256.22;;;1.44;52.89
30744;BME280;17486;46.738;7.622;2023-02-28T03:38:29;95307.16;;;1.68;52.98
30744;BME280;17486;46.738;7.622;2023-02-28T03:41:00;95296.91;;;1.69;52.54
30744;BME280;17486;46.738;7.622;2023-02-28T03:43:33;95306.31;;;1.67;53.00
30744;BME280;17486;46.738;7.622;2023-02-28T03:46:02;95242.66;;;1.36;52.73
30744;BME280;17486;46.738;7.622;2023-02-28T03:48:38;95246.91;;;1.39;52.86
30744;BME280;17486;46.738;7.622;2023-02-28T03:51:08;95311.41;;;1.69;52.81
30744;BME280;17486;46.738;7.622;2023-02-28T03:53:42;95257.00;;;1.48;52.84
30744;BME280;17486;46.738;7.622;2023-02-28T03:56:22;95303.72;;;1.72;52.76
30744;BME280;17486;46.738;7.622;2023-02-28T03:59:07;95311.38;;;1.70;53.17
30744;BME280;17486;46.738;7.622;2023-02-28T04:01:39;95325.09;;;1.68;53.22
30744;BME280;17486;46.738;7.622;2023-02-28T04:04:07;95307.22;;;1.63;53.21
30744;BME280;17486;46.738;7.622;2023-02-28T04:06:34;95330.22;;;1.69;52.84
30744;BME280;17486;46.738;7.622;2023-02-28T04:08:59;95331.97;;;1.67;52.85
30744;BME280;17486;46.738;7.622;2023-02-28T04:11:37;95326.91;;;1.61;53.34
30744;BME280;17486;46.738;7.622;2023-02-28T04:14:04;95315.06;;;1.54;53.64
30744;BME280;17486;46.738;7.622;2023-02-28T04:16:31;95280.31;;;1.32;53.24
30744;BME280;17486;46.738;7.622;2023-02-28T04:18:57;95318.44;;;1.54;53.15
30744;BME280;17486;46.738;7.622;2023-02-28T04:21:29;95319.31;;;1.55;53.26
30744;BME280;17486;46.738;7.622;2023-02-28T04:23:55;95324.38;;;1.59;53.64
30744;BME280;17486;46.738;7.622;2023-02-28T04:26:30;95312.50;;;1.52;53.26
30744;BME280;17486;46.738;7.622;2023-02-28T04:28:56;95325.31;;;1.54;53.40
30744;BME280;17486;46.738;7.622;2023-02-28T04:31:21;95315.19;;;1.44;53.38
30744;BME280;17486;46.738;7.622;2023-02-28T04:33:47;95283.88;;;1.21;53.66
30744;BME280;17486;46.738;7.622;2023-02-28T04:36:12;95326.22;;;1.49;53.50
30744;BME280;17486;46.738;7.622;2023-02-28T04:38:39;95324.47;;;1.52;53.43
30744;BME280;17486;46.738;7.622;2023-02-28T04:41:05;95344.91;;;1.58;53.05
30744;BME280;17486;46.738;7.622;2023-02-28T04:43:31;95338.88;;;1.60;53.56
30744;BME280;17486;46.738;7.622;2023-02-28T04:45:59;95291.41;;;1.31;53.40
30744;BME280;17486;46.738;7.622;2023-02-28T04:48:28;95322.75;;;1.51;53.33
30744;BME280;17486;46.738;7.622;2023-02-28T04:50:54;95295.63;;;1.36;52.98
30744;BME280;17486;46.738;7.622;2023-02-28T04:53:20;95292.28;;;1.30;53.23
30744;BME280;17486;46.738;7.622;2023-02-28T04:55:46;95335.53;;;1.55;53.18
30744;BME280;17486;46.738;7.622;2023-02-28T04:58:14;95342.38;;;1.55;53.39
30744;BME280;17486;46.738;7.622;2023-02-28T05:00:40;95335.50;;;1.57;53.20
30744;BME280;17486;46.738;7.622;2023-02-28T05:03:05;95300.72;;;1.39;53.77
30744;BME280;17486;46.738;7.622;2023-02-28T05:05:31;95347.38;;;1.64;53.96
30744;BME280;17486;46.738;7.622;2023-02-28T05:07:56;95339.72;;;1.61;54.34
30744;BME280;17486;46.738;7.622;2023-02-28T05:10:22;95341.41;;;1.62;53.80
30744;BME280;17486;46.738;7.622;2023-02-28T05:12:48;95352.53;;;1.61;54.12
30744;BME280;17486;46.738;7.622;2023-02-28T05:15:15;95348.19;;;1.66;53.68
30744;BME280;17486;46.738;7.622;2023-02-28T05:17:41;95307.50;;;1.43;53.57
30744;BME280;17486;46.738;7.622;2023-02-28T05:20:07;95303.25;;;1.39;53.95
30744;BME280;17486;46.738;7.622;2023-02-28T05:22:40;95351.56;;;1.70;53.63
30744;BME280;17486;46.738;7.622;2023-02-28T05:25:06;95338.00;;;1.63;53.87
30744;BME280;17486;46.738;7.622;2023-02-28T05:27:32;95314.38;;;1.39;53.73
30744;BME280;17486;46.738;7.622;2023-02-28T05:29:58;95307.59;;;1.37;53.63
30744;BME280;17486;46.738;7.622;2023-02-28T05:32:24;95348.25;;;1.63;53.65
30744;BME280;17486;46.738;7.622;2023-02-28T05:34:49;95354.19;;;1.67;53.52
30744;BME280;17486;46.738;7.622;2023-02-28T05:37:15;95344.78;;;1.67;53.82
30744;BME280;17486;46.738;7.622;2023-02-28T05:39:41;95356.69;;;1.71;53.91
30744;BME280;17486;46.738;7.622;2023-02-28T05:42:07;95332.00;;;1.62;53.63
30744;BME280;17486;46.738;7.622;2023-02-28T05:44:34;95301.47;;;1.45;53.15
30744;BME280;17486;46.738;7.622;2023-02-28T05:47:00;95298.97;;;1.42;53.27
30744;BME280;17486;46.738;7.622;2023-02-28T05:49:25;95329.50;;;1.58;53.46
30744;BME280;17486;46.738;7.622;2023-02-28T05:51:51;95316.78;;;1.52;53.28
30744;BME280;17486;46.738;7.622;2023-02-28T05:54:16;95338.78;;;1.68;53.50
30744;BME280;17486;46.738;7.622;2023-02-28T05:56:42;95301.56;;;1.39;53.28
30744;BME280;17486;46.738;7.622;2023-02-28T05:59:11;95349.97;;;1.61;53.19
30744;BME280;17486;46.738;7.622;2023-02-28T06:01:41;95316.09;;;1.40;53.49
30744;BME280;17486;46.738;7.622;2023-02-28T06:04:09;95318.56;;;1.45;53.11
30744;BME280;17486;46.738;7.622;2023-02-28T06:06:36;95361.84;;;1.70;52.82
30744;BME280;17486;46.738;7.622;2023-02-28T06:09:03;95359.31;;;1.65;53.42
30744;BME280;17486;46.738;7.622;2023-02-28T06:11:29;95360.16;;;1.67;53.03
30744;BME280;17486;46.738;7.622;2023-02-28T06:13:58;95343.19;;;1.57;53.09
30744;BME280;17486;46.738;7.622;2023-02-28T06:16:26;95362.66;;;1.70;53.03
30744;BME280;17486;46.738;7.622;2023-02-28T06:18:52;95365.25;;;1.69;52.82
30744;BME280;17486;46.738;7.622;2023-02-28T06:21:18;95364.44;;;1.67;52.94
30744;BME280;17486;46.738;7.622;2023-02-28T06:23:44;95325.38;;;1.47;52.99
30744;BME280;17486;46.738;7.622;2023-02-28T06:26:10;95366.97;;;1.70;53.19
30744;BME280;17486;46.738;7.622;2023-02-28T06:28:36;95358.47;;;1.64;53.42
30744;BME280;17486;46.738;7.622;2023-02-28T06:31:09;95373.88;;;1.63;53.16
30744;BME280;17486;46.738;7.622;2023-02-28T06:33:36;95384.19;;;1.60;53.40
30744;BME280;17486;46.738;7.622;2023-02-28T06:36:02;95362.03;;;1.53;53.37
30744;BME280;17486;46.738;7.622;2023-02-28T06:38:28;95384.19;;;1.57;53.62
30744;BME280;17486;46.738;7.622;2023-02-28T06:40:55;95401.22;;;1.61;53.68
30744;BME280;17486;46.738;7.622;2023-02-28T06:43:22;95340.91;;;1.37;53.11
30744;BME280;17486;46.738;7.622;2023-02-28T06:45:47;95385.03;;;1.59;53.59
30744;BME280;17486;46.738;7.622;2023-02-28T06:48:13;95395.31;;;1.59;53.83
30744;BME280;17486;46.738;7.622;2023-02-28T06:50:38;95396.94;;;1.64;53.63
30744;BME280;17486;46.738;7.622;2023-02-28T06:53:04;95346.91;;;1.34;53.56
30744;BME280;17486;46.738;7.622;2023-02-28T06:55:30;95354.53;;;1.40;53.90
30744;BME280;17486;46.738;7.622;2023-02-28T06:57:55;95340.91;;;1.33;53.52
30744;BME280;17486;46.738;7.622;2023-02-28T07:00:21;95392.63;;;1.65;53.45
30744;BME280;17486;46.738;7.622;2023-02-28T07:02:47;95385.84;;;1.61;53.64
30744;BME280;17486;46.738;7.622;2023-02-28T07:05:13;95406.25;;;1.70;53.45
30744;BME280;17486;46.738;7.622;2023-02-28T07:07:39;95354.41;;;1.48;53.33
30744;BME280;17486;46.738;7.622;2023-02-28T07:10:09;95407.00;;;1.80;53.63
30744;BME280;17486;46.738;7.622;2023-02-28T07:12:36;95358.63;;;1.51;53.73
30744;BME280;17486;46.738;7.622;2023-02-28T07:15:03;95407.81;;;1.82;53.53
30744;BME280;17486;46.738;7.622;2023-02-28T07:17:29;95409.47;;;1.85;53.10
30744;BME280;17486;46.738;7.622;2023-02-28T07:19:54;95368.00;;;1.56;53.45
30744;BME280;17486;46.738;7.622;2023-02-28T07:22:19;95403.56;;;1.79;53.43
30744;BME280;17486;46.738;7.622;2023-02-28T07:24:45;95410.31;;;1.87;53.19
30744;BME280;17486;46.738;7.622;2023-02-28T07:27:10;95404.34;;;1.88;53.29
30744;BME280;17486;46.738;7.622;2023-02-28T07:29:36;95409.41;;;1.91;53.27
30744;BME280;17486;46.738;7.622;2023-02-28T07:32:02;95416.28;;;1.90;52.98
30744;BME280;17486;46.738;7.622;2023-02-28T07:34:28;95409.50;;;1.86;53.19
30744;BME280;17486;46.738;7.622;2023-02-28T07:36:53;95412.84;;;1.90;52.80
30744;BME280;17486;46.738;7.622;2023-02-28T07:39:21;95390.84;;;1.73;52.79
30744;BME280;17486;46.738;7.622;2023-02-28T07:41:46;95416.31;;;1.86;52.95
30744;BME280;17486;46.738;7.622;2023-02-28T07:44:12;95410.31;;;1.88;53.06
30744;BME280;17486;46.738;7.622;2023-02-28T07:46:37;95373.81;;;1.69;52.83
30744;BME280;17486;46.738;7.622;2023-02-28T07:49:04;95427.28;;;1.98;53.17
30744;BME280;17486;46.738;7.622;2023-02-28T07:51:30;95422.19;;;1.95;52.95
30744;BME280;17486;46.738;7.622;2023-02-28T07:53:56;95411.84;;;2.00;52.82
30744;BME280;17486;46.738;7.622;2023-02-28T07:56:21;95361.72;;;1.77;53.16
30744;BME280;17486;46.738;7.622;2023-02-28T07:58:47;95366.78;;;1.82;52.82
30744;BME280;17486;46.738;7.622;2023-02-28T08:01:12;95414.28;;;2.12;52.88
30744;BME280;17486;46.738;7.622;2023-02-28T08:03:38;95404.91;;;2.10;52.72
30744;BME280;17486;46.738;7.622;2023-02-28T08:06:05;95364.88;;;1.98;52.97
30744;BME280;17486;46.738;7.622;2023-02-28T08:08:31;95373.31;;;2.06;53.50
30744;BME280;17486;46.738;7.622;2023-02-28T08:11:01;95368.97;;;2.10;53.79
30744;BME280;17486;46.738;7.622;2023-02-28T08:13:28;95376.50;;;2.21;53.21
30744;BME280;17486;46.738;7.622;2023-02-28T08:15:55;95424.81;;;2.52;53.20
30744;BME280;17486;46.738;7.622;2023-02-28T08:18:21;95430.81;;;2.51;52.83
30744;BME280;17486;46.738;7.622;2023-02-28T08:20:47;95420.34;;;2.63;52.85
30744;BME280;17486;46.738;7.622;2023-02-28T08:23:12;95411.88;;;2.58;52.73
30744;BME280;17486;46.738;7.622;2023-02-28T08:25:39;95371.91;;;2.43;52.57
30744;BME280;17486;46.738;7.622;2023-02-28T08:28:05;95415.06;;;2.72;52.14
30744;BME280;17486;46.738;7.622;2023-02-28T08:30:30;95417.50;;;2.80;52.00
30744;BME280;17486;46.738;7.622;2023-02-28T08:32:56;95381.81;;;2.66;52.00
30744;BME280;17486;46.738;7.622;2023-02-28T08:35:21;95436.97;;;2.95;51.53
30744;BME280;17486;46.738;7.622;2023-02-28T08:37:48;95436.03;;;2.99;51.69
30744;BME280;17486;46.738;7.622;2023-02-28T08:40:13;95428.31;;;3.01;51.55
30744;BME280;17486;46.738;7.622;2023-02-28T08:42:47;95434.22;;;3.06;51.00
30744;BME280;17486;46.738;7.622;2023-02-28T08:45:13;95422.19;;;3.06;51.26
30744;BME280;17486;46.738;7.622;2023-02-28T08:47:39;95442.44;;;3.25;51.11
30744;BME280;17486;46.738;7.622;2023-02-28T08:50:05;95431.25;;;3.29;51.39
30744;BME280;17486;46.738;7.622;2023-02-28T08:52:31;95429.28;;;3.43;51.20
30744;BME280;17486;46.738;7.622;2023-02-28T08:54:56;95438.47;;;3.55;51.02
30744;BME280;17486;46.738;7.622;2023-02-28T08:57:22;95439.06;;;3.68;50.91
30744;BME280;17486;46.738;7.622;2023-02-28T08:59:47;95440.56;;;3.78;50.66
30744;BME280;17486;46.738;7.622;2023-02-28T09:02:13;95444.66;;;3.89;49.93
30744;BME280;17486;46.738;7.622;2023-02-28T09:04:40;95447.13;;;3.95;49.84
30744;BME280;17486;46.738;7.622;2023-02-28T09:07:05;95435.13;;;3.94;49.36
30744;BME280;17486;46.738;7.622;2023-02-28T09:09:31;95438.38;;;4.02;49.63
30744;BME280;17486;46.738;7.622;2023-02-28T09:11:57;95422.09;;;4.02;49.33
30744;BME280;17486;46.738;7.622;2023-02-28T09:14:22;95447.41;;;4.22;49.59
30744;BME280;17486;46.738;7.622;2023-02-28T09:16:48;95449.19;;;4.20;49.01
30744;BME280;17486;46.738;7.622;2023-02-28T09:19:13;95439.47;;;4.32;48.76
30744;BME280;17486;46.738;7.622;2023-02-28T09:21:39;95442.69;;;4.42;48.43
30744;BME280;17486;46.738;7.622;2023-02-28T09:24:05;95400.91;;;4.31;48.61
30744;BME280;17486;46.738;7.622;2023-02-28T09:26:31;95459.16;;;4.74;48.23
30744;BME280;17486;46.738;7.622;2023-02-28T09:28:56;95410.06;;;4.43;46.95
30744;BME280;17486;46.738;7.622;2023-02-28T09:31:25;95406.28;;;4.58;47.71
30744;BME280;17486;46.738;7.622;2023-02-28T09:33:54;95447.34;;;5.00;48.66
30744;BME280;17486;46.738;7.622;2023-02-28T09:36:22;95408.81;;;4.95;47.86
30744;BME280;17486;46.738;7.622;2023-02-28T09:38:47;95407.41;;;5.17;48.19
30744;BME280;17486;46.738;7.622;2023-02-28T09:41:25;95421.28;;;5.45;47.26
30744;BME280;17486;46.738;7.622;2023-02-28T09:43:59;95435.06;;;5.76;47.06
30744;BME280;17486;46.738;7.622;2023-02-28T09:48:54;95403.16;;;5.78;46.92
30744;BME280;17486;46.738;7.622;2023-02-28T09:53:55;95413.53;;;6.08;45.97
30744;BME280;17486;46.738;7.622;2023-02-28T09:56:25;95455.03;;;6.32;45.17
30744;BME280;17486;46.738;7.622;2023-02-28T09:59:04;95431.56;;;6.40;45.14
30744;BME280;17486;46.738;7.622;2023-02-28T10:01:49;95442.25;;;6.56;45.07
30744;BME280;17486;46.738;7.622;2023-02-28T10:04:41;95445.09;;;6.76;45.09
30744;BME280;17486;46.738;7.622;2023-02-28T10:10:06;95399.69;;;6.68;44.34
30744;BME280;17486;46.738;7.622;2023-02-28T10:12:40;95451.34;;;6.96;43.74
30744;BME280;17486;46.738;7.622;2023-02-28T10:15:14;95404.91;;;6.93;44.57
30744;BME280;17486;46.738;7.622;2023-02-28T10:17:43;95400.03;;;7.10;42.99
30744;BME280;17486;46.738;7.622;2023-02-28T10:20:14;95450.88;;;7.37;42.18
30744;BME280;17486;46.738;7.622;2023-02-28T10:22:58;95443.06;;;7.38;42.09
30744;BME280;17486;46.738;7.622;2023-02-28T10:25:28;95427.53;;;7.38;41.67
30744;BME280;17486;46.738;7.622;2023-02-28T10:28:01;95384.69;;;7.31;42.22
30744;BME280;17486;46.738;7.622;2023-02-28T10:30:30;95390.50;;;7.38;41.29
30744;BME280;17486;46.738;7.622;2023-02-28T10:32:56;95392.06;;;7.42;41.28
30744;BME280;17486;46.738;7.622;2023-02-28T10:35:24;95439.31;;;7.72;41.54
30744;BME280;17486;46.738;7.622;2023-02-28T10:37:55;95431.06;;;7.86;40.50
30744;BME280;17486;46.738;7.622;2023-02-28T10:43:00;95428.34;;;7.89;41.25
30744;BME280;17486;46.738;7.622;2023-02-28T10:45:28;95410.97;;;7.93;41.12
30744;BME280;17486;46.738;7.622;2023-02-28T10:47:59;95432.91;;;8.30;40.90
30744;BME280;17486;46.738;7.622;2023-02-28T10:53:36;95442.16;;;8.61;39.83
30744;BME280;17486;46.738;7.622;2023-02-28T10:56:13;95439.97;;;8.72;40.09
30744;BME280;17486;46.738;7.622;2023-02-28T11:01:45;95401.50;;;8.84;39.81
30744;BME280;17486;46.738;7.622;2023-02-28T11:07:20;95422.94;;;9.09;38.82
30744;BME280;17486;46.738;7.622;2023-02-28T11:09:50;95429.19;;;9.26;39.26
30744;BME280;17486;46.738;7.622;2023-02-28T11:12:26;95426.75;;;9.43;39.03
30744;BME280;17486;46.738;7.622;2023-02-28T11:14:56;95400.38;;;9.53;38.18
30744;BME280;17486;46.738;7.622;2023-02-28T11:17:26;95387.91;;;9.61;38.40
30744;BME280;17486;46.738;7.622;2023-02-28T11:19:58;95380.34;;;9.75;38.37
30744;BME280;17486;46.738;7.622;2023-02-28T11:22:25;95408.47;;;10.05;37.57
30744;BME280;17486;46.738;7.622;2023-02-28T11:24:55;95413.19;;;10.16;37.88
30744;BME280;17486;46.738;7.622;2023-02-28T11:29:57;95383.41;;;10.23;37.92
30744;BME280;17486;46.738;7.622;2023-02-28T11:32:24;95407.78;;;10.59;38.03
30744;BME280;17486;46.738;7.622;2023-02-28T11:37:37;95393.78;;;10.98;36.87
30744;BME280;17486;46.738;7.622;2023-02-28T11:40:15;95405.13;;;11.15;37.11
30744;BME280;17486;46.738;7.622;2023-02-28T11:51:27;95386.94;;;11.83;36.63
30744;BME280;17486;46.738;7.622;2023-02-28T11:54:45;95395.63;;;12.00;35.57
30744;BME280;17486;46.738;7.622;2023-02-28T12:05:42;95387.88;;;12.48;33.86
30744;BME280;17486;46.738;7.622;2023-02-28T12:08:30;95374.91;;;12.62;33.52
30744;BME280;17486;46.738;7.622;2023-02-28T12:16:59;95382.28;;;12.86;33.18
30744;BME280;17486;46.738;7.622;2023-02-28T12:19:46;95342.09;;;12.58;32.83
30744;BME280;17486;46.738;7.622;2023-02-28T12:22:28;95371.34;;;12.79;32.98
30744;BME280;17486;46.738;7.622;2023-02-28T12:25:21;95344.41;;;12.63;32.75
30744;BME280;17486;46.738;7.622;2023-02-28T12:27:50;95366.81;;;12.83;32.88
30744;BME280;17486;46.738;7.622;2023-02-28T12:30:27;95378.16;;;12.82;32.38
30744;BME280;17486;46.738;7.622;2023-02-28T12:33:14;95369.41;;;12.83;32.63
30744;BME280;17486;46.738;7.622;2023-02-28T12:35:55;95367.81;;;12.80;32.45
30744;BME280;17486;46.738;7.622;2023-02-28T12:40:53;95323.69;;;12.75;32.07
30744;BME280;17486;46.738;7.622;2023-02-28T12:43:21;95367.25;;;13.05;32.05
30744;BME280;17486;46.738;7.622;2023-02-28T12:46:00;95324.84;;;12.86;31.92
30744;BME280;17486;46.738;7.622;2023-02-28T12:50:59;95337.44;;;13.24;31.68
30744;BME280;17486;46.738;7.622;2023-02-28T12:53:34;95364.50;;;13.23;31.35
30744;BME280;17486;46.738;7.622;2023-02-28T12:58:49;95361.63;;;13.27;31.36
30744;BME280;17486;46.738;7.622;2023-02-28T13:01:56;95352.78;;;13.30;31.35
30744;BME280;17486;46.738;7.622;2023-02-28T13:09:58;95331.59;;;12.90;31.60
30744;BME280;17486;46.738;7.622;2023-02-28T13:12:25;95322.09;;;13.03;31.16
30744;BME280;17486;46.738;7.622;2023-02-28T13:15:07;95317.59;;;12.91;31.01
30744;BME280;17486;46.738;7.622;2023-02-28T13:17:39;95343.50;;;13.10;31.29
30744;BME280;17486;46.738;7.622;2023-02-28T13:20:15;95336.88;;;13.19;31.13
30744;BME280;17486;46.738;7.622;2023-02-28T13:22:44;95362.56;;;13.26;31.19
30744;BME280;17486;46.738;7.622;2023-02-28T13:27:54;95352.25;;;13.39;30.87
30744;BME280;17486;46.738;7.622;2023-02-28T13:33:33;95364.44;;;13.24;30.98
30744;BME280;17486;46.738;7.622;2023-02-28T13:47:19;95349.59;;;13.70;31.47
30744;BME280;17486;46.738;7.622;2023-02-28T13:51:52;95363.41;;;13.57;30.62
30744;BME280;17486;46.738;7.622;2023-02-28T13:57:17;95377.06;;;13.16;30.71
30744;BME280;17486;46.738;7.622;2023-02-28T14:05:32;95341.59;;;12.19;31.16
30744;BME280;17486;46.738;7.622;2023-02-28T14:08:04;95348.06;;;11.96;31.20
30744;BME280;17486;46.738;7.622;2023-02-28T14:10:41;95378.84;;;11.88;31.52
30744;BME280;17486;46.738;7.622;2023-02-28T14:15:59;95386.66;;;11.54;31.69
30744;BME280;17486;46.738;7.622;2023-02-28T14:21:12;95364.22;;;11.34;32.67
30744;BME280;17486;46.738;7.622;2023-02-28T14:32:15;95382.59;;;10.78;33.46
30744;BME280;17486;46.738;7.622;2023-02-28T14:35:35;95391.03;;;10.65;32.52
30744;BME280;17486;46.738;7.622;2023-02-28T14:37:36;95376.59;;;10.40;33.38
30744;BME280;17486;46.738;7.622;2023-02-28T14:40:03;95387.56;;;10.27;33.38
30744;BME280;17486;46.738;7.622;2023-02-28T14:42:37;95395.06;;;10.15;33.94
30744;BME280;17486;46.738;7.622;2023-02-28T14:45:19;95389.84;;;9.95;34.15
30744;BME280;17486;46.738;7.622;2023-02-28T14:47:45;95404.03;;;9.88;34.75
30744;BME280;17486;46.738;7.622;2023-02-28T14:50:21;95395.63;;;9.62;34.44
30744;BME280;17486;46.738;7.622;2023-02-28T14:52:47;95407.44;;;9.49;34.79
30744;BME280;17486;46.738;7.622;2023-02-28T14:55:17;95402.91;;;9.34;35.22
30744;BME280;17486;46.738;7.622;2023-02-28T14:58:04;95391.16;;;9.04;35.30
30744;BME280;17486;46.738;7.622;2023-02-28T15:00:47;95390.88;;;8.90;35.54
30744;BME280;17486;46.738;7.622;2023-02-28T15:03:32;95372.47;;;8.53;35.86
30744;BME280;17486;46.738;7.622;2023-02-28T15:06:00;95376.41;;;8.40;36.23
30744;BME280;17486;46.738;7.622;2023-02-28T15:08:26;95422.72;;;8.49;36.52
30744;BME280;17486;46.738;7.622;2023-02-28T15:11:04;95431.06;;;8.34;36.81
30744;BME280;17486;46.738;7.622;2023-02-28T15:13:38;95382.34;;;7.96;37.05
30744;BME280;17486;46.738;7.622;2023-02-28T15:16:08;95385.16;;;7.90;37.10
30744;BME280;17486;46.738;7.622;2023-02-28T15:18:48;95403.16;;;7.94;37.79
30744;BME280;17486;46.738;7.622;2023-02-28T15:21:17;95426.94;;;8.04;37.53
30744;BME280;17486;46.738;7.622;2023-02-28T15:23:46;95428.88;;;7.99;37.49
30744;BME280;17486;46.738;7.622;2023-02-28T15:26:21;95407.69;;;7.88;37.78
30744;BME280;17486;46.738;7.622;2023-02-28T15:28:59;95423.97;;;7.68;38.85
30744;BME280;17486;46.738;7.622;2023-02-28T15:31:31;95413.28;;;7.52;38.54
30744;BME280;17486;46.738;7.622;2023-02-28T15:34:03;95430.94;;;7.40;38.42
30744;BME280;17486;46.738;7.622;2023-02-28T15:36:30;95423.19;;;7.39;38.88
30744;BME280;17486;46.738;7.622;2023-02-28T15:38:59;95438.97;;;7.33;39.16
30744;BME280;17486;46.738;7.622;2023-02-28T15:41:36;95435.75;;;7.24;39.52
30744;BME280;17486;46.738;7.622;2023-02-28T15:44:29;95391.09;;;6.94;39.45
30744;BME280;17486;46.738;7.622;2023-02-28T15:47:03;95445.44;;;7.19;39.53